RJBB(METAR)
07/17 07:00
METAR RJBB 162200Z VRB02KT 9999 FEW015 BKN025 25/24 Q1013 NOSIG RMK
1CU015 7CU025 A2992=
戻る
トップページへ戻る
IMOC Co,.Ltd.